Time;durP1;ratioP1;P1;durP2;ratioP2;P2;SDS_P1;SDS_P2;PMS_P1;PMS_P2;Temp;Humidity;BMP_temperature;BMP_pressure;BME280_temperature;BME280_humidity;BME280_pressure;Samples;Min_cycle;Max_cycle;Signal;HPM_P1;HPM_P2
2021/09/09 00:01:42;;;;;;;2.87;2.40;;;13.60;99.90;;;;;;6194955;28;20228;-69
2021/09/09 00:04:47;;;;;;;4.40;3.07;;;13.70;99.90;;;;;;6193974;28;20728;-68
2021/09/09 00:07:50;;;;;;;5.57;2.83;;;13.70;99.90;;;;;;6193735;28;20294;-67
2021/09/09 00:10:52;;;;;;;5.07;2.70;;;13.80;99.90;;;;;;6193663;28;20201;-68
2021/09/09 00:13:55;;;;;;;3.67;2.70;;;13.80;99.90;;;;;;6194295;28;20205;-68
2021/09/09 00:16:58;;;;;;;4.63;2.50;;;13.80;99.90;;;;;;6200650;28;20243;-67
2021/09/09 00:20:01;;;;;;;3.57;2.33;;;13.80;99.90;;;;;;6194764;28;20201;-67
2021/09/09 00:23:03;;;;;;;4.63;2.60;;;13.80;99.90;;;;;;6194855;28;20198;-68
2021/09/09 00:26:06;;;;;;;3.80;3.00;;;13.90;99.90;;;;;;6193857;28;20204;-67
2021/09/09 00:29:08;;;;;;;5.43;2.80;;;14.00;99.90;;;;;;6197471;28;20240;-68
2021/09/09 00:32:10;;;;;;;4.30;2.73;;;14.10;99.90;;;;;;6197822;28;20260;-68
2021/09/09 00:35:13;;;;;;;4.30;2.77;;;14.10;99.90;;;;;;6197740;28;20204;-67
2021/09/09 00:38:17;;;;;;;3.50;2.90;;;14.00;99.90;;;;;;6199121;28;20216;-68
2021/09/09 00:41:19;;;;;;;4.63;2.83;;;13.90;99.90;;;;;;6199247;28;20271;-68
2021/09/09 00:44:30;;;;;;;3.50;2.60;;;13.80;99.90;;;;;;6199000;28;20192;-68
2021/09/09 00:47:32;;;;;;;3.03;2.60;;;13.70;99.90;;;;;;6198700;28;20186;-68
2021/09/09 00:50:35;;;;;;;2.87;2.43;;;13.70;99.90;;;;;;6197342;28;20313;-68
2021/09/09 00:53:38;;;;;;;5.57;2.97;;;13.60;99.90;;;;;;6197472;28;20192;-68
2021/09/09 00:56:41;;;;;;;3.73;2.73;;;13.60;99.90;;;;;;6213539;28;20197;-68
2021/09/09 00:59:44;;;;;;;5.93;2.50;;;13.60;99.90;;;;;;6198392;28;20220;-68
2021/09/09 01:02:47;;;;;;;3.63;2.70;;;13.60;99.90;;;;;;6213121;28;20235;-67
2021/09/09 01:05:49;;;;;;;4.23;2.50;;;13.60;99.90;;;;;;6198267;28;20193;-68
2021/09/09 01:08:51;;;;;;;3.73;2.60;;;13.60;99.90;;;;;;6197209;28;20279;-68
2021/09/09 01:11:54;;;;;;;3.40;2.60;;;13.50;99.90;;;;;;6199795;28;20678;-68
2021/09/09 01:14:56;;;;;;;3.37;2.57;;;13.40;99.90;;;;;;6221983;28;20358;-68
2021/09/09 01:17:58;;;;;;;4.20;2.60;;;13.30;99.90;;;;;;6212252;28;20655;-68
2021/09/09 01:21:00;;;;;;;4.17;2.67;;;13.30;99.90;;;;;;6198075;28;20192;-67
2021/09/09 01:24:08;;;;;;;6.83;2.90;;;13.30;99.90;;;;;;6198222;28;20192;-68
2021/09/09 01:27:11;;;;;;;4.60;2.70;;;13.20;99.90;;;;;;6180545;28;20635;-68
2021/09/09 01:30:13;;;;;;;5.53;2.90;;;13.20;99.90;;;;;;6197909;28;20843;-68
2021/09/09 01:33:15;;;;;;;3.10;2.77;;;13.10;99.90;;;;;;6197354;28;20211;-68
2021/09/09 01:36:18;;;;;;;4.33;2.60;;;13.10;99.90;;;;;;6188512;28;20203;-68
2021/09/09 01:39:20;;;;;;;6.27;2.70;;;13.20;99.90;;;;;;6189050;28;20223;-68
2021/09/09 01:42:23;;;;;;;6.83;2.80;;;13.20;99.90;;;;;;6197544;28;20201;-68
2021/09/09 01:45:26;;;;;;;3.87;2.37;;;13.30;99.90;;;;;;6197386;28;20199;-68
2021/09/09 01:48:29;;;;;;;4.43;2.67;;;13.50;99.90;;;;;;6197342;28;20258;-68
2021/09/09 01:51:31;;;;;;;3.67;2.67;;;13.60;99.90;;;;;;6212627;28;20206;-68
2021/09/09 01:54:33;;;;;;;5.83;2.30;;;13.70;99.90;;;;;;6197263;28;20751;-68
2021/09/09 01:57:36;;;;;;;4.47;2.27;;;13.80;99.90;;;;;;6195928;28;20202;-68
2021/09/09 02:00:38;;;;;;;6.17;2.50;;;13.80;99.90;;;;;;6197098;28;20576;-68
2021/09/09 02:03:40;;;;;;;4.90;2.57;;;13.80;99.90;;;;;;6195528;28;20225;-68
2021/09/09 02:06:43;;;;;;;6.53;2.57;;;13.80;99.90;;;;;;6187757;28;20200;-69
2021/09/09 02:09:45;;;;;;;4.70;2.87;;;13.80;99.90;;;;;;6198530;28;20196;-68
2021/09/09 02:12:49;;;;;;;2.90;2.50;;;13.80;99.90;;;;;;6195686;28;20189;-68
2021/09/09 02:15:51;;;;;;;2.93;2.30;;;13.80;99.90;;;;;;6208804;28;20208;-68
2021/09/09 02:18:53;;;;;;;4.87;2.50;;;13.70;99.90;;;;;;6196675;28;20292;-68
2021/09/09 02:21:55;;;;;;;3.60;2.43;;;13.70;99.90;;;;;;6195504;28;20189;-68
2021/09/09 02:24:58;;;;;;;4.87;2.30;;;13.70;99.90;;;;;;6196446;28;20208;-69
2021/09/09 02:28:00;;;;;;;3.57;2.60;;;13.60;99.90;;;;;;6211413;28;20202;-68
2021/09/09 02:31:02;;;;;;;4.00;2.40;;;13.40;99.90;;;;;;6195056;28;20674;-68
2021/09/09 02:34:05;;;;;;;3.47;2.60;;;13.30;99.90;;;;;;6196281;28;20962;-68
2021/09/09 02:37:08;;;;;;;3.63;2.53;;;13.30;99.90;;;;;;6187037;28;20651;-69
2021/09/09 02:40:12;;;;;;;5.77;2.77;;;13.20;99.90;;;;;;6193551;28;20204;-68
2021/09/09 02:43:14;;;;;;;5.13;2.73;;;13.20;99.90;;;;;;6211186;28;20671;-69
2021/09/09 02:46:16;;;;;;;6.93;2.80;;;13.20;99.90;;;;;;6195964;28;20192;-68
2021/09/09 02:49:19;;;;;;;4.30;2.30;;;13.10;99.90;;;;;;6211194;28;20507;-68
2021/09/09 02:52:22;;;;;;;4.27;2.60;;;13.00;99.90;;;;;;6210856;28;20215;-68
2021/09/09 02:55:25;;;;;;;3.33;2.60;;;13.00;99.90;;;;;;6195704;28;20207;-68
2021/09/09 02:58:27;;;;;;;5.73;2.63;;;13.20;99.90;;;;;;6195775;28;20211;-69
2021/09/09 03:01:29;;;;;;;3.20;2.13;;;13.20;99.90;;;;;;6178157;28;20230;-68
2021/09/09 03:04:32;;;;;;;4.83;2.20;;;13.20;99.90;;;;;;6210794;28;20828;-68
2021/09/09 03:07:35;;;;;;;3.53;2.40;;;13.20;99.90;;;;;;6194575;28;20200;-68
2021/09/09 03:10:37;;;;;;;4.20;2.80;;;13.20;99.90;;;;;;6210640;28;20242;-68
2021/09/09 03:13:39;;;;;;;5.10;2.73;;;13.20;99.90;;;;;;6195822;28;20192;-68
2021/09/09 03:16:41;;;;;;;11.67;2.50;;;13.10;99.90;;;;;;6217422;28;20198;-68
2021/09/09 03:19:44;;;;;;;4.97;2.60;;;13.10;99.90;;;;;;6198578;28;20282;-69
2021/09/09 03:22:46;;;;;;;3.27;2.53;;;13.10;99.90;;;;;;6195404;28;20225;-68
2021/09/09 03:25:48;;;;;;;3.57;2.60;;;13.20;99.90;;;;;;6195403;28;20559;-69
2021/09/09 03:28:50;;;;;;;4.17;2.33;;;13.10;99.90;;;;;;6195429;28;20197;-67
2021/09/09 03:31:53;;;;;;;5.10;2.60;;;13.10;99.90;;;;;;6195364;28;20199;-68
2021/09/09 03:34:55;;;;;;;4.73;2.83;;;13.20;99.90;;;;;;6194093;28;20208;-68
2021/09/09 03:37:57;;;;;;;5.33;2.90;;;13.20;99.90;;;;;;6195096;28;20192;-68
2021/09/09 03:40:59;;;;;;;5.27;2.73;;;13.20;99.90;;;;;;6210512;28;20676;-68
2021/09/09 03:44:02;;;;;;;5.93;2.77;;;13.20;99.90;;;;;;6210238;28;20274;-68
2021/09/09 03:47:04;;;;;;;9.00;2.50;;;13.20;99.90;;;;;;6195046;28;20318;-67
2021/09/09 03:50:07;;;;;;;4.97;2.40;;;13.30;99.90;;;;;;6195264;28;20220;-68
2021/09/09 03:53:10;;;;;;;9.90;2.37;;;13.50;99.90;;;;;;6210029;28;20569;-68
2021/09/09 03:56:12;;;;;;;6.97;2.40;;;13.70;99.90;;;;;;6195120;28;20285;-68
2021/09/09 03:59:14;;;;;;;7.17;2.90;;;13.90;99.90;;;;;;6194809;28;20229;-68
2021/09/09 04:02:17;;;;;;;6.00;2.37;;;14.00;99.90;;;;;;6196472;28;20245;-68
2021/09/09 04:05:19;;;;;;;5.23;2.33;;;14.00;99.90;;;;;;6199658;28;20205;-68
2021/09/09 04:08:22;;;;;;;5.60;2.13;;;14.00;99.90;;;;;;6199637;28;20275;-68
2021/09/09 04:11:24;;;;;;;3.07;2.33;;;13.90;99.90;;;;;;6182141;28;20220;-68
2021/09/09 04:14:27;;;;;;;5.93;2.10;;;13.80;99.90;;;;;;6186864;28;20197;-69
2021/09/09 04:17:30;;;;;;;4.30;2.57;;;13.80;99.90;;;;;;6207748;28;20646;-68
2021/09/09 04:20:32;;;;;;;4.27;2.43;;;13.70;99.90;;;;;;6197958;28;20217;-68
2021/09/09 04:23:34;;;;;;;7.80;2.60;;;13.80;99.90;;;;;;6199214;28;20204;-68
2021/09/09 04:26:37;;;;;;;3.53;2.07;;;13.90;99.90;;;;;;6197901;28;20190;-68
2021/09/09 04:29:41;;;;;;;2.47;1.70;;;14.00;99.90;;;;;;6199072;28;20197;-69
2021/09/09 04:32:43;;;;;;;5.90;2.20;;;14.00;99.90;;;;;;6199110;28;20189;-69
2021/09/09 04:35:45;;;;;;;4.13;2.40;;;13.90;99.90;;;;;;6199192;28;20189;-68
2021/09/09 04:38:48;;;;;;;4.03;2.70;;;13.90;99.90;;;;;;6197525;28;20217;-67
2021/09/09 04:41:50;;;;;;;9.20;2.83;;;13.90;99.90;;;;;;6199045;28;20212;-68
2021/09/09 04:44:52;;;;;;;4.17;2.67;;;14.00;99.90;;;;;;6198905;28;20603;-67
2021/09/09 04:47:54;;;;;;;6.90;2.83;;;14.20;99.90;;;;;;6197570;28;20275;-69
2021/09/09 04:50:56;;;;;;;6.87;2.80;;;14.40;99.90;;;;;;6198522;28;20185;-68
2021/09/09 04:53:59;;;;;;;4.70;2.30;;;14.50;99.90;;;;;;6198668;28;20197;-68
2021/09/09 04:57:01;;;;;;;3.73;2.87;;;14.60;99.90;;;;;;6213165;28;20256;-68
2021/09/09 05:00:06;;;;;;;4.23;2.47;;;14.70;99.70;;;;;;6196638;28;20217;-69
2021/09/09 05:03:09;;;;;;;4.83;2.40;;;14.80;99.20;;;;;;6197844;28;20229;-69
2021/09/09 05:06:11;;;;;;;9.10;2.47;;;14.90;99.10;;;;;;6197929;28;20193;-69
2021/09/09 05:09:14;;;;;;;4.20;2.77;;;15.00;98.90;;;;;;6196669;28;20669;-70
2021/09/09 05:12:16;;;;;;;3.87;2.40;;;15.00;98.80;;;;;;6196686;28;20189;-69
2021/09/09 05:15:18;;;;;;;4.43;2.80;;;15.10;99.20;;;;;;6198733;28;20573;-69
2021/09/09 05:18:20;;;;;;;5.40;2.40;;;15.00;99.00;;;;;;6197545;28;20189;-69
2021/09/09 05:21:22;;;;;;;2.87;2.50;;;14.90;99.40;;;;;;6197775;28;20190;-69
2021/09/09 05:24:25;;;;;;;3.90;2.10;;;14.80;99.90;;;;;;6197773;28;20196;-70
2021/09/09 05:27:27;;;;;;;4.77;2.40;;;14.80;99.90;;;;;;6197518;28;20532;-69
2021/09/09 05:30:29;;;;;;;3.33;2.13;;;14.60;99.90;;;;;;6197286;28;20707;-69
2021/09/09 05:33:32;;;;;;;4.20;2.50;;;14.50;99.90;;;;;;6197299;28;20196;-69
2021/09/09 05:36:34;;;;;;;4.27;2.70;;;14.40;99.90;;;;;;6187737;28;20205;-69
2021/09/09 05:39:36;;;;;;;3.40;2.57;;;14.20;99.90;;;;;;6183533;28;20336;-69
2021/09/09 05:42:38;;;;;;;5.23;2.73;;;14.10;99.90;;;;;;6197180;28;20200;-70
2021/09/09 05:45:41;;;;;;;4.20;2.70;;;14.00;99.90;;;;;;6195623;28;20182;-69
2021/09/09 05:48:43;;;;;;;5.30;2.40;;;13.80;99.90;;;;;;6197186;28;20189;-69
2021/09/09 05:51:45;;;;;;;3.67;2.20;;;13.70;99.90;;;;;;6211884;28;20209;-69
2021/09/09 05:54:47;;;;;;;4.00;2.80;;;13.60;99.90;;;;;;6211771;28;20215;-69
2021/09/09 05:57:50;;;;;;;3.50;3.13;;;13.50;99.90;;;;;;6196570;28;20328;-69
2021/09/09 06:00:52;;;;;;;6.70;2.97;;;13.40;99.90;;;;;;6196700;28;20232;-69
2021/09/09 06:03:58;;;;;;;3.17;2.60;;;13.30;99.90;;;;;;6196655;28;20192;-69
2021/09/09 06:07:01;;;;;;;4.33;2.93;;;13.30;99.90;;;;;;6187300;28;20213;-69
2021/09/09 06:10:04;;;;;;;4.37;3.07;;;13.30;99.90;;;;;;6193759;28;20350;-69
2021/09/09 06:13:07;;;;;;;2.97;2.63;;;13.30;99.90;;;;;;6211268;28;20193;-69
2021/09/09 06:16:09;;;;;;;4.67;2.87;;;13.30;99.90;;;;;;6215375;28;20192;-68
2021/09/09 06:19:11;;;;;;;5.17;3.13;;;13.30;99.90;;;;;;6172428;28;20217;-69
2021/09/09 06:22:14;;;;;;;6.07;2.83;;;13.30;99.90;;;;;;6192891;28;20343;-69
2021/09/09 06:25:16;;;;;;;4.20;2.60;;;13.30;99.90;;;;;;6195500;28;20200;-69
2021/09/09 06:28:18;;;;;;;3.43;2.87;;;13.40;99.90;;;;;;6195970;28;20592;-69
2021/09/09 06:31:21;;;;;;;4.73;2.43;;;13.40;99.90;;;;;;6196158;28;20258;-69
2021/09/09 06:34:23;;;;;;;4.10;2.23;;;13.50;99.90;;;;;;6197733;28;20233;-69
2021/09/09 06:37:25;;;;;;;4.40;2.50;;;13.70;99.90;;;;;;6194422;28;20217;-69
2021/09/09 06:40:28;;;;;;;4.57;2.87;;;13.80;99.90;;;;;;6195694;28;20315;-69
2021/09/09 06:43:30;;;;;;;2.87;2.40;;;13.80;99.90;;;;;;6195502;28;20211;-69
2021/09/09 06:46:32;;;;;;;3.67;2.73;;;13.90;99.90;;;;;;6194539;28;20327;-70
2021/09/09 06:49:35;;;;;;;4.50;2.50;;;14.00;99.90;;;;;;6195603;28;20605;-69
2021/09/09 06:52:37;;;;;;;5.07;2.57;;;14.20;99.90;;;;;;6195584;28;20201;-69
2021/09/09 06:55:39;;;;;;;5.73;2.20;;;14.50;99.90;;;;;;6195567;28;20205;-70
2021/09/09 06:58:41;;;;;;;5.83;2.37;;;14.90;99.90;;;;;;6194309;28;20190;-69
2021/09/09 07:01:44;;;;;;;4.93;2.60;;;15.20;99.90;;;;;;6195302;28;20701;-69
2021/09/09 07:04:46;;;;;;;5.13;2.10;;;15.60;98.60;;;;;;6195318;28;20328;-69
2021/09/09 07:07:48;;;;;;;3.77;2.40;;;16.00;96.90;;;;;;6194255;28;20185;-69
2021/09/09 07:10:51;;;;;;;4.53;2.17;;;16.30;94.60;;;;;;6195164;28;20288;-70
2021/09/09 07:13:53;;;;;;;4.27;1.93;;;16.70;94.20;;;;;;6194106;28;20201;-71
2021/09/09 07:16:55;;;;;;;5.40;2.33;;;16.90;96.00;;;;;;6175768;28;20286;-69
2021/09/09 07:19:58;;;;;;;4.37;2.13;;;16.80;96.10;;;;;;6186166;28;20208;-70
2021/09/09 07:23:00;;;;;;;4.80;2.27;;;17.00;92.90;;;;;;6177891;28;20207;-69
2021/09/09 07:26:02;;;;;;;5.70;2.23;;;17.20;93.90;;;;;;6193686;28;20189;-69
2021/09/09 07:29:04;;;;;;;2.77;2.10;;;17.40;94.40;;;;;;6177604;28;20204;-70
2021/09/09 07:32:07;;;;;;;4.60;2.00;;;17.50;93.80;;;;;;6195045;28;20191;-70
2021/09/09 07:35:09;;;;;;;8.23;2.37;;;17.60;92.30;;;;;;6201981;28;20646;-70
2021/09/09 07:38:12;;;;;;;5.17;2.60;;;17.90;90.70;;;;;;6214743;28;20193;-69
2021/09/09 07:41:15;;;;;;;2.53;1.93;;;18.30;91.00;;;;;;6198804;28;20209;-69
2021/09/09 07:44:17;;;;;;;6.00;2.13;;;18.50;89.70;;;;;;6198790;28;20565;-70
2021/09/09 07:47:19;;;;;;;5.80;2.10;;;18.90;86.50;;;;;;6198583;28;20193;-69
2021/09/09 07:50:22;;;;;;;6.77;2.30;;;19.20;83.10;;;;;;6199591;28;20208;-68
2021/09/09 07:53:24;;;;;;;6.27;2.40;;;19.40;84.00;;;;;;6214615;28;20332;-70
2021/09/09 07:56:26;;;;;;;5.47;2.80;;;19.70;84.50;;;;;;6199378;28;20194;-69
2021/09/09 07:59:29;;;;;;;7.07;2.30;;;19.90;79.20;;;;;;6199436;28;20533;-69
2021/09/09 08:02:31;;;;;;;3.83;1.97;;;20.30;79.70;;;;;;6199392;28;20221;-69
2021/09/09 08:05:33;;;;;;;3.73;2.53;;;20.50;75.30;;;;;;6199206;28;20237;-69
2021/09/09 08:08:35;;;;;;;3.90;2.10;;;20.80;73.70;;;;;;6199274;28;20208;-69
2021/09/09 08:11:39;;;;;;;3.20;2.10;;;21.10;71.60;;;;;;6197821;28;20208;-69
2021/09/09 08:14:41;;;;;;;4.37;2.20;;;21.30;71.80;;;;;;6220920;28;20542;-69
2021/09/09 08:17:46;;;;;;;3.73;2.50;;;21.70;71.80;;;;;;6198271;28;20660;-69
2021/09/09 08:20:48;;;;;;;7.33;2.80;;;21.80;65.10;;;;;;6198877;28;20288;-68
2021/09/09 08:23:50;;;;;;;4.47;2.37;;;22.00;64.70;;;;;;6199018;28;20587;-70
2021/09/09 08:26:52;;;;;;;6.07;2.27;;;22.20;63.90;;;;;;6198797;28;20188;-70
2021/09/09 08:29:54;;;;;;;3.37;2.17;;;22.50;68.10;;;;;;6198931;28;20561;-69
2021/09/09 08:32:57;;;;;;;5.17;2.30;;;22.60;63.00;;;;;;6198722;28;20229;-69
2021/09/09 08:36:06;;;;;;;3.83;2.10;;;22.80;64.20;;;;;;6198431;28;20197;-69
2021/09/09 08:39:09;;;;;;;3.93;2.37;;;23.00;61.40;;;;;;6198514;28;20204;-70
2021/09/09 08:42:14;;;;;;;6.50;2.27;;;23.30;60.50;;;;;;6198867;28;20569;-70
2021/09/09 08:45:16;;;;;;;5.90;2.30;;;23.50;58.10;;;;;;6197326;28;20201;-69
2021/09/09 08:48:19;;;;;;;10.20;2.27;;;23.70;58.40;;;;;;6196359;28;20312;-69
2021/09/09 08:51:22;;;;;;;4.53;2.67;;;23.80;54.90;;;;;;6198406;28;20201;-69
2021/09/09 08:54:24;;;;;;;5.60;2.30;;;23.90;55.90;;;;;;6197158;28;20201;-69
2021/09/09 08:57:29;;;;;;;6.87;2.23;;;24.10;53.80;;;;;;6198083;28;20193;-70
2021/09/09 09:00:32;;;;;;;3.83;2.03;;;24.10;50.70;;;;;;6198035;28;20609;-69
2021/09/09 09:03:52;;;;;;;5.50;2.40;;;24.20;50.70;;;;;;6197811;28;20456;-70
2021/09/09 09:06:55;;;;;;;3.80;1.80;;;24.30;50.70;;;;;;6188935;28;20206;-69
2021/09/09 09:09:59;;;;;;;3.47;2.40;;;24.70;49.60;;;;;;6184939;28;20236;-68
2021/09/09 09:13:01;;;;;;;6.10;2.23;;;25.00;48.80;;;;;;6197781;28;20283;-70
2021/09/09 09:16:04;;;;;;;5.03;2.10;;;25.20;47.60;;;;;;6209617;28;20204;-70
2021/09/09 09:19:15;;;;;;;4.13;2.10;;;25.20;45.80;;;;;;6197804;28;20680;-69
2021/09/09 09:22:17;;;;;;;3.60;1.77;;;25.20;46.40;;;;;;6212846;28;20213;-69
2021/09/09 09:25:43;;;;;;;2.23;2.03;;;25.10;44.10;;;;;;6198307;28;20268;-69
2021/09/09 09:28:47;;;;;;;5.67;1.83;;;25.10;46.10;;;;;;6198128;28;20198;-68
2021/09/09 09:31:50;;;;;;;7.33;2.17;;;25.20;44.90;;;;;;6197837;28;20205;-70
2021/09/09 09:35:14;;;;;;;2.67;1.97;;;25.30;44.20;;;;;;6196460;28;20193;-68
2021/09/09 09:38:22;;;;;;;3.67;2.10;;;25.30;43.60;;;;;;6197312;28;20193;-69
2021/09/09 09:41:25;;;;;;;4.10;1.80;;;25.30;45.10;;;;;;6197123;28;20209;-69
2021/09/09 09:44:42;;;;;;;4.50;2.03;;;25.20;43.90;;;;;;6197142;28;20192;-69
2021/09/09 09:47:44;;;;;;;2.63;1.88;;;25.30;43.50;;;;;;6196853;28;20194;-70
2021/09/09 09:50:47;;;;;;;6.30;2.10;;;25.40;42.60;;;;;;6212048;28;20597;-70
2021/09/09 09:54:10;;;;;;;2.75;1.95;;;25.50;42.60;;;;;;6197165;28;20185;-69
2021/09/09 09:57:12;;;;;;;3.08;2.08;;;25.70;42.40;;;;;;6196861;28;20189;-69
2021/09/09 10:00:14;;;;;;;5.78;2.08;;;25.90;42.90;;;;;;6195628;28;20295;-70
2021/09/09 10:03:20;;;;;;;2.50;1.95;;;26.20;44.90;;;;;;6196329;28;20229;-70
2021/09/09 10:06:23;;;;;;;6.40;2.22;;;26.60;43.50;;;;;;6196805;28;20189;-69
2021/09/09 10:09:27;;;;;;;5.07;2.30;;;27.00;44.10;;;;;;6196972;28;20193;-69
2021/09/09 10:12:30;;;;;;;5.53;2.08;;;27.10;42.30;;;;;;6196584;28;20189;-68
2021/09/09 10:15:34;;;;;;;2.47;1.45;;;26.90;41.10;;;;;;6197192;28;20189;-69
2021/09/09 10:18:36;;;;;;;4.25;2.03;;;26.80;40.60;;;;;;6211280;28;20700;-71
2021/09/09 10:21:47;;;;;;;1.98;1.77;;;26.90;41.30;;;;;;6196817;28;20215;-70
2021/09/09 10:25:02;;;;;;;5.55;2.05;;;26.80;41.40;;;;;;6211549;28;20182;-69
2021/09/09 10:28:34;;;;;;;4.72;1.95;;;27.00;41.00;;;;;;6195133;28;20571;-69
2021/09/09 10:31:42;;;;;;;4.53;1.92;;;27.20;44.00;;;;;;6196048;28;20193;-70
2021/09/09 10:34:44;;;;;;;3.53;1.90;;;27.70;42.10;;;;;;6196045;28;20206;-68
2021/09/09 10:37:49;;;;;;;2.58;1.63;;;28.00;43.30;;;;;;6196204;28;20204;-68
2021/09/09 10:40:51;;;;;;;2.88;1.90;;;28.20;41.40;;;;;;6195584;28;20215;-70
2021/09/09 10:43:58;;;;;;;4.18;1.90;;;28.30;40.00;;;;;;6196028;28;20193;-69
2021/09/09 10:47:19;;;;;;;2.85;2.13;;;28.50;41.40;;;;;;6178493;28;20225;-69
2021/09/09 10:50:25;;;;;;;3.75;1.77;;;28.60;40.60;;;;;;6211039;28;20205;-69
2021/09/09 10:53:53;;;;;;;3.30;1.90;;;28.70;40.00;;;;;;6210803;28;20197;-69
2021/09/09 10:57:13;;;;;;;4.75;1.90;;;28.60;39.90;;;;;;6194559;28;20196;-68
2021/09/09 11:00:16;;;;;;;6.35;2.35;;;28.70;40.20;;;;;;6210484;28;20469;-70
2021/09/09 11:03:37;;;;;;;5.30;2.03;;;28.60;39.80;;;;;;6193918;28;20654;-69
2021/09/09 11:06:40;;;;;;;4.50;2.35;;;28.40;39.10;;;;;;6195455;28;20248;-69
2021/09/09 11:09:42;;;;;;;4.38;2.08;;;28.30;39.40;;;;;;6194077;28;20193;-69
2021/09/09 11:12:44;;;;;;;6.45;2.10;;;28.30;39.40;;;;;;6195127;28;20197;-69
2021/09/09 11:15:46;;;;;;;6.75;2.03;;;28.40;40.40;;;;;;6210716;28;20652;-70
2021/09/09 11:18:50;;;;;;;4.90;2.30;;;29.00;42.60;;;;;;6196162;28;20227;-68
2021/09/09 11:21:53;;;;;;;3.90;2.33;;;29.00;38.70;;;;;;6195748;28;20209;-69
2021/09/09 11:24:57;;;;;;;3.72;2.33;;;29.00;38.80;;;;;;6193990;28;20181;-68
2021/09/09 11:28:17;;;;;;;3.88;2.30;;;29.00;38.40;;;;;;6193872;28;20198;-69
2021/09/09 11:31:46;;;;;;;6.50;2.15;;;29.10;40.00;;;;;;6195888;28;20193;-70
2021/09/09 11:34:48;;;;;;;4.47;2.05;;;29.40;41.10;;;;;;6188163;28;20205;-69
2021/09/09 11:37:51;;;;;;;5.30;2.20;;;29.60;39.40;;;;;;6195232;28;20197;-69
2021/09/09 11:41:11;;;;;;;4.35;2.28;;;29.90;38.10;;;;;;6209634;28;20700;-69
2021/09/09 11:44:29;;;;;;;4.20;2.17;;;29.90;38.10;;;;;;6210494;28;20194;-71
2021/09/09 11:47:31;;;;;;;4.88;2.38;;;30.00;38.20;;;;;;6194967;28;20193;-69
2021/09/09 11:50:49;;;;;;;8.65;2.20;;;30.10;39.10;;;;;;6209935;28;20553;-68
2021/09/09 11:53:51;;;;;;;6.38;2.33;;;29.80;37.00;;;;;;6194002;28;20178;-69
2021/09/09 11:57:13;;;;;;;9.60;2.65;;;29.50;38.60;;;;;;6195089;28;20189;-68
2021/09/09 12:00:15;;;;;;;5.68;2.20;;;29.40;38.10;;;;;;6209874;28;20703;-69
2021/09/09 12:03:17;;;;;;;7.90;2.78;;;29.30;38.30;;;;;;6174916;28;20731;-69
2021/09/09 12:06:23;;;;;;;3.35;1.95;;;29.40;39.40;;;;;;6185783;28;20194;-69
2021/09/09 12:09:27;;;;;;;8.98;2.25;;;29.50;38.90;;;;;;6186073;28;20625;-69
2021/09/09 12:12:33;;;;;;;3.97;1.98;;;29.70;38.10;;;;;;6194757;28;20205;-70
2021/09/09 12:15:36;;;;;;;3.42;2.65;;;29.80;37.90;;;;;;6198949;28;20280;-69
2021/09/09 12:18:38;;;;;;;3.92;2.08;;;29.80;36.80;;;;;;6193602;28;20193;-68
2021/09/09 12:21:54;;;;;;;8.02;2.30;;;29.80;37.00;;;;;;6193332;28;20236;-69
2021/09/09 12:24:56;;;;;;;4.10;2.03;;;29.60;37.20;;;;;;6198245;28;20540;-69
2021/09/09 12:28:03;;;;;;;4.72;2.22;;;29.70;37.60;;;;;;6198109;28;20197;-68
2021/09/09 12:31:05;;;;;;;3.90;1.98;;;29.90;38.30;;;;;;6198759;28;20204;-69
2021/09/09 12:34:19;;;;;;;3.97;2.00;;;30.00;36.90;;;;;;6198932;28;20208;-69
2021/09/09 12:37:23;;;;;;;5.18;1.80;;;29.70;36.10;;;;;;6198842;28;20189;-68
2021/09/09 12:40:42;;;;;;;10.25;2.35;;;29.70;36.60;;;;;;6198858;28;20635;-69
2021/09/09 12:44:06;;;;;;;5.03;2.15;;;29.70;37.30;;;;;;6213861;28;20201;-69
2021/09/09 12:47:16;;;;;;;4.72;2.33;;;30.10;36.90;;;;;;6198647;28;20221;-70
2021/09/09 12:50:32;;;;;;;5.15;2.10;;;30.80;36.60;;;;;;6198562;28;20201;-69
2021/09/09 12:53:38;;;;;;;5.93;1.83;;;31.30;35.70;;;;;;6197032;28;20634;-69
2021/09/09 12:56:56;;;;;;;7.15;2.00;;;31.40;35.40;;;;;;6198507;28;20569;-69
2021/09/09 12:59:59;;;;;;;6.70;1.95;;;31.30;35.10;;;;;;6213133;28;20743;-69
2021/09/09 13:03:01;;;;;;;2.63;1.60;;;31.40;34.40;;;;;;6196841;28;20228;-69
2021/09/09 13:06:06;;;;;;;3.42;1.80;;;31.60;34.60;;;;;;6198353;28;20193;-69
2021/09/09 13:09:08;;;;;;;3.58;1.90;;;32.20;34.30;;;;;;6172766;28;20225;-69
2021/09/09 13:12:11;;;;;;;2.85;1.80;;;32.40;33.00;;;;;;6170451;28;20205;-68
2021/09/09 13:15:14;;;;;;;4.03;1.75;;;32.40;32.50;;;;;;6202774;28;20272;-70
2021/09/09 13:18:16;;;;;;;5.38;1.88;;;31.90;33.20;;;;;;6207200;28;20205;-69
2021/09/09 13:21:26;;;;;;;3.90;1.80;;;31.60;32.70;;;;;;6197879;28;20696;-69
2021/09/09 13:24:30;;;;;;;4.38;2.08;;;31.70;33.40;;;;;;6197769;28;20272;-69
2021/09/09 13:27:33;;;;;;;2.75;1.73;;;31.80;33.40;;;;;;6196521;28;20193;-69
2021/09/09 13:30:37;;;;;;;5.57;1.90;;;32.00;32.70;;;;;;6196397;28;20197;-69
2021/09/09 13:33:40;;;;;;;6.40;2.13;;;32.40;32.60;;;;;;6180370;28;20210;-69
2021/09/09 13:36:43;;;;;;;5.03;2.10;;;33.10;32.10;;;;;;6197313;28;20196;-69
2021/09/09 13:39:46;;;;;;;3.63;1.90;;;33.30;32.00;;;;;;6197466;28;20198;-69
2021/09/09 13:42:48;;;;;;;3.13;2.05;;;33.30;31.60;;;;;;6196067;28;20228;-69
2021/09/09 13:45:50;;;;;;;4.30;1.77;;;33.50;31.20;;;;;;6195899;28;20196;-68
2021/09/09 13:48:52;;;;;;;3.45;1.77;;;33.60;30.90;;;;;;6197391;28;20200;-69
2021/09/09 13:51:55;;;;;;;3.03;1.65;;;34.00;31.80;;;;;;6197069;28;20283;-70
2021/09/09 13:54:57;;;;;;;4.95;2.28;;;34.70;31.90;;;;;;6197123;28;20191;-69
2021/09/09 13:57:59;;;;;;;3.10;1.90;;;35.20;29.90;;;;;;6212376;28;20784;-70
2021/09/09 14:01:01;;;;;;;4.68;2.00;;;35.30;29.70;;;;;;6196481;28;20242;-69
2021/09/09 14:04:04;;;;;;;5.45;2.30;;;35.60;30.00;;;;;;6203936;28;20268;-69
2021/09/09 14:07:07;;;;;;;1.95;1.75;;;36.10;31.10;;;;;;6191629;28;20529;-68
2021/09/09 14:10:13;;;;;;;4.03;1.77;;;36.20;29.30;;;;;;6196769;28;20196;-70
2021/09/09 14:13:15;;;;;;;3.45;1.85;;;36.00;29.70;;;;;;6196786;28;20206;-69
2021/09/09 14:16:17;;;;;;;2.53;1.55;;;35.60;29.50;;;;;;6206786;28;20208;-69
2021/09/09 14:19:20;;;;;;;4.80;1.95;;;34.70;29.40;;;;;;6196562;28;20621;-70
2021/09/09 14:22:22;;;;;;;4.00;1.98;;;33.10;30.40;;;;;;6194938;28;20221;-69
2021/09/09 14:25:24;;;;;;;2.83;1.65;;;31.80;31.30;;;;;;6196487;28;20193;-68
2021/09/09 14:28:26;;;;;;;4.55;2.00;;;30.40;30.60;;;;;;6196116;28;20231;-68
2021/09/09 14:31:29;;;;;;;3.35;1.63;;;29.30;31.50;;;;;;6196281;28;20205;-69
2021/09/09 14:34:31;;;;;;;2.50;2.00;;;28.60;32.70;;;;;;6194881;28;20201;-68
2021/09/09 14:37:33;;;;;;;2.72;1.70;;;27.90;34.20;;;;;;6195899;28;20200;-68
2021/09/09 14:40:35;;;;;;;3.67;1.90;;;27.50;35.20;;;;;;6195992;28;20197;-68
2021/09/09 14:43:38;;;;;;;5.90;1.90;;;27.30;35.60;;;;;;6195934;28;20640;-69
2021/09/09 14:46:40;;;;;;;4.05;2.03;;;27.30;35.60;;;;;;6195305;28;20462;-68
2021/09/09 14:49:42;;;;;;;2.92;1.90;;;27.00;36.00;;;;;;6195860;28;20557;-68
2021/09/09 14:52:44;;;;;;;4.03;1.65;;;26.90;36.20;;;;;;6194562;28;20197;-68
2021/09/09 14:55:47;;;;;;;3.67;1.55;;;26.60;36.00;;;;;;6195623;28;20197;-68
2021/09/09 14:58:49;;;;;;;2.03;1.70;;;26.60;36.70;;;;;;6195774;28;20197;-69
2021/09/09 15:01:51;;;;;;;4.57;1.70;;;26.60;36.90;;;;;;6195365;28;20221;-69
2021/09/09 15:04:53;;;;;;;4.35;1.90;;;26.50;37.20;;;;;;6195490;28;20193;-68
2021/09/09 15:07:56;;;;;;;4.38;1.75;;;26.30;37.60;;;;;;6194200;28;20189;-68
2021/09/09 15:10:59;;;;;;;3.05;1.80;;;26.00;37.70;;;;;;6198348;28;20692;-68
2021/09/09 15:14:02;;;;;;;5.30;1.77;;;25.90;38.80;;;;;;6196492;28;20190;-68
2021/09/09 15:17:05;;;;;;;2.70;1.60;;;25.60;39.10;;;;;;6219963;28;20193;-68
2021/09/09 15:20:08;;;;;;;2.80;1.55;;;25.40;39.50;;;;;;6194107;28;20198;-69
2021/09/09 15:23:10;;;;;;;3.50;1.73;;;25.30;39.60;;;;;;6195299;28;20209;-69
2021/09/09 15:26:12;;;;;;;3.15;1.77;;;25.10;40.00;;;;;;6195277;28;20198;-68
2021/09/09 15:29:14;;;;;;;2.58;1.55;;;25.00;40.40;;;;;;6195114;28;20605;-69
2021/09/09 15:32:17;;;;;;;2.05;1.60;;;24.90;39.20;;;;;;6195236;28;20189;-68
2021/09/09 15:35:19;;;;;;;2.97;1.92;;;24.80;39.20;;;;;;6195034;28;20613;-68
2021/09/09 15:38:21;;;;;;;3.67;1.65;;;24.60;38.80;;;;;;6195143;28;20243;-69
2021/09/09 15:41:23;;;;;;;4.63;1.67;;;24.50;40.00;;;;;;6193862;28;20217;-69
2021/09/09 15:44:25;;;;;;;4.72;1.60;;;24.40;40.40;;;;;;6195066;28;20268;-69
2021/09/09 15:47:28;;;;;;;3.90;1.80;;;24.30;42.20;;;;;;6195195;28;20189;-69
2021/09/09 15:50:30;;;;;;;2.00;1.40;;;24.00;45.40;;;;;;6194787;28;20279;-68
2021/09/09 15:53:34;;;;;;;3.00;1.73;;;23.70;47.60;;;;;;6193798;28;20208;-69
2021/09/09 15:56:48;;;;;;;2.80;1.60;;;23.40;47.10;;;;;;6195394;28;20277;-70